createdAt,value
2022-12-11T00:00:30.572Z,101193.81
2022-12-11T00:01:09.615Z,101200.16
2022-12-11T00:01:41.049Z,101202.34
2022-12-11T00:02:12.540Z,101194.28
2022-12-11T00:02:44.320Z,101187.03
2022-12-11T00:03:19.256Z,101205.22
2022-12-11T00:03:50.983Z,101198.25
2022-12-11T00:04:23.199Z,101193.69
2022-12-11T00:04:54.797Z,101199.06
2022-12-11T00:05:26.162Z,101192.09
2022-12-11T00:05:57.544Z,101194.78
2022-12-11T00:06:28.911Z,101192.41
2022-12-11T00:07:00.348Z,101194.00
2022-12-11T00:07:31.759Z,101199.06
2022-12-11T00:08:03.504Z,101194.78
2022-12-11T00:08:35.150Z,101194.97
2022-12-11T00:09:06.535Z,101197.66
2022-12-11T00:09:38.113Z,101196.38
2022-12-11T00:10:09.696Z,101191.00
2022-12-11T00:10:48.906Z,101196.56
2022-12-11T00:11:21.378Z,101197.38
2022-12-11T00:11:53.033Z,101196.56
2022-12-11T00:12:24.612Z,101190.41
2022-12-11T00:12:56.001Z,101192.78
2022-12-11T00:13:27.480Z,101192.00
2022-12-11T00:13:59.230Z,101187.44
2022-12-11T00:14:31.837Z,101185.03
2022-12-11T00:15:03.458Z,101192.59
2022-12-11T00:15:34.799Z,101192.28
2022-12-11T00:16:06.838Z,101193.59
2022-12-11T00:16:38.333Z,101189.63
2022-12-11T00:17:10.158Z,101191.19
2022-12-11T00:17:41.694Z,101195.19
2022-12-11T00:18:14.232Z,101195.47
2022-12-11T00:18:45.677Z,101184.25
2022-12-11T00:19:17.178Z,101193.09
2022-12-11T00:19:48.678Z,101190.41
2022-12-11T00:20:20.065Z,101192.78
2022-12-11T00:20:51.459Z,101190.91
2022-12-11T00:21:22.814Z,101190.59
2022-12-11T00:21:54.274Z,101197.38
2022-12-11T00:22:25.678Z,101186.94
2022-12-11T00:22:57.121Z,101181.88
2022-12-11T00:23:29.077Z,101190.59
2022-12-11T00:24:00.460Z,101195.97
2022-12-11T00:24:32.000Z,101187.44
2022-12-11T00:25:04.285Z,101190.59
2022-12-11T00:25:35.658Z,101187.94
2022-12-11T00:26:09.571Z,101190.13
2022-12-11T00:26:41.265Z,101188.72
2022-12-11T00:27:12.745Z,101190.59
2022-12-11T00:27:46.771Z,101193.00
2022-12-11T00:28:21.239Z,101191.41
2022-12-11T00:28:55.587Z,101184.44
2022-12-11T00:29:27.104Z,101192.19
2022-12-11T00:29:58.535Z,101186.84
2022-12-11T00:30:29.994Z,101185.25
2022-12-11T00:31:09.957Z,101195.19
2022-12-11T00:31:42.398Z,101189.31
2022-12-11T00:32:13.819Z,101185.25
2022-12-11T00:32:45.243Z,101185.53
2022-12-11T00:33:17.182Z,101188.22
2022-12-11T00:33:49.157Z,101189.03
2022-12-11T00:34:20.646Z,101189.03
2022-12-11T00:34:52.014Z,101189.81
2022-12-11T00:35:23.397Z,101190.13
2022-12-11T00:35:54.804Z,101185.84
2022-12-11T00:36:27.423Z,101192.50
2022-12-11T00:36:59.129Z,101194.38
2022-12-11T00:37:30.698Z,101191.69
2022-12-11T00:38:02.064Z,101194.38
2022-12-11T00:38:33.564Z,101189.50
2022-12-11T00:39:05.995Z,101194.88
2022-12-11T00:39:39.882Z,101187.13
2022-12-11T00:40:11.562Z,101191.69
2022-12-11T00:40:44.067Z,101191.09
2022-12-11T00:41:16.703Z,101191.91
2022-12-11T00:41:48.124Z,101193.78
2022-12-11T00:42:19.502Z,101186.34
2022-12-11T00:42:50.912Z,101185.25
2022-12-11T00:43:22.359Z,101178.28
2022-12-11T00:43:53.797Z,101186.53
2022-12-11T00:44:25.407Z,101186.03
2022-12-11T00:44:56.832Z,101178.00
2022-12-11T00:45:28.305Z,101186.25
2022-12-11T00:45:59.886Z,101187.34
2022-12-11T00:46:31.796Z,101188.91
2022-12-11T00:47:03.982Z,101181.66
2022-12-11T00:47:35.404Z,101181.66
2022-12-11T00:48:07.211Z,101187.03
2022-12-11T00:48:38.776Z,101177.09
2022-12-11T00:49:10.223Z,101179.56
2022-12-11T00:49:45.178Z,101180.88
2022-12-11T00:50:20.951Z,101178.97
2022-12-11T00:50:52.407Z,101175.00
2022-12-11T00:51:23.860Z,101168.34
2022-12-11T00:51:55.436Z,101176.09
2022-12-11T00:52:26.800Z,101175.59
2022-12-11T00:52:58.198Z,101168.34
2022-12-11T00:53:29.627Z,101170.72
2022-12-11T00:54:01.043Z,101173.91
2022-12-11T00:54:34.318Z,101183.84
2022-12-11T00:55:06.063Z,101173.13
2022-12-11T00:55:41.689Z,101172.31
2022-12-11T00:56:21.953Z,101172.31
2022-12-11T00:56:55.784Z,101171.22
2022-12-11T00:57:27.192Z,101173.13
2022-12-11T00:57:58.756Z,101171.22
2022-12-11T00:58:30.113Z,101165.38
2022-12-11T00:59:01.556Z,101173.91
2022-12-11T00:59:32.957Z,101173.13
2022-12-11T01:00:08.797Z,101168.06
2022-12-11T01:00:40.939Z,101164.56
2022-12-11T01:01:15.940Z,101176.31
2022-12-11T01:01:47.432Z,101170.94
2022-12-11T01:02:18.930Z,101169.84
2022-12-11T01:02:50.691Z,101176.00
2022-12-11T01:03:22.217Z,101167.75
2022-12-11T01:03:53.885Z,101176.00
2022-12-11T01:04:25.303Z,101171.72
2022-12-11T01:04:56.773Z,101170.94
2022-12-11T01:05:28.184Z,101166.97
2022-12-11T01:05:59.590Z,101176.31
2022-12-11T01:06:31.060Z,101165.06
2022-12-11T01:07:02.522Z,101169.34
2022-12-11T01:07:34.088Z,101168.25
2022-12-11T01:08:05.759Z,101166.38
2022-12-11T01:08:38.863Z,101171.94
2022-12-11T01:09:28.807Z,101162.88
2022-12-11T01:10:18.953Z,101174.09
2022-12-11T01:10:50.386Z,101167.34
2022-12-11T01:11:21.840Z,101172.72
2022-12-11T01:11:53.737Z,101167.16
2022-12-11T01:12:26.824Z,101166.84
2022-12-11T01:13:04.222Z,101168.44
2022-12-11T01:13:35.991Z,101168.91
2022-12-11T01:14:08.123Z,101165.13
2022-12-11T01:14:39.547Z,101168.91
2022-12-11T01:15:12.181Z,101169.25
2022-12-11T01:15:45.548Z,101168.13
2022-12-11T01:16:17.008Z,101167.34
2022-12-11T01:16:48.454Z,101173.47
2022-12-11T01:17:19.975Z,101164.66
2022-12-11T01:17:52.068Z,101168.75
2022-12-11T01:18:25.507Z,101165.75
2022-12-11T01:18:57.657Z,101171.59
2022-12-11T01:19:29.088Z,101163.38
2022-12-11T01:20:00.478Z,101167.34
2022-12-11T01:20:32.334Z,101168.13
2022-12-11T01:21:11.966Z,101175.06
2022-12-11T01:21:43.435Z,101171.13
2022-12-11T01:22:15.300Z,101173.47
2022-12-11T01:22:46.903Z,101173.47
2022-12-11T01:23:18.305Z,101167.94
2022-12-11T01:23:51.068Z,101176.16
2022-12-11T01:24:22.585Z,101166.56
2022-12-11T01:24:54.128Z,101172.72
2022-12-11T01:25:27.083Z,101175.88
2022-12-11T01:26:04.852Z,101170.81
2022-12-11T01:26:36.307Z,101174.91
2022-12-11T01:27:08.575Z,101167.66
2022-12-11T01:27:40.131Z,101174.91
2022-12-11T01:28:11.718Z,101167.16
2022-12-11T01:28:44.032Z,101171.94
2022-12-11T01:29:15.469Z,101176.16
2022-12-11T01:29:47.049Z,101173.81
2022-12-11T01:30:19.835Z,101174.28
2022-12-11T01:30:51.339Z,101176.50
2022-12-11T01:31:22.787Z,101173.47
2022-12-11T01:31:54.161Z,101179.66
2022-12-11T01:32:25.606Z,101170.03
2022-12-11T01:32:57.022Z,101171.13
2022-12-11T01:33:28.715Z,101174.28
2022-12-11T01:34:00.294Z,101180.13
2022-12-11T01:35:22.178Z,101178.56
2022-12-11T01:35:54.078Z,101176.66
2022-12-11T01:36:25.486Z,101175.88
2022-12-11T01:36:57.064Z,101175.88
2022-12-11T01:37:28.618Z,101172.38
2022-12-11T01:38:00.317Z,101182.03
2022-12-11T01:38:31.896Z,101176.50
2022-12-11T01:39:03.694Z,101174.28
2022-12-11T01:39:36.263Z,101176.50
2022-12-11T01:40:09.212Z,101180.13
2022-12-11T01:40:49.660Z,101180.13
2022-12-11T01:41:21.849Z,101180.94
2022-12-11T01:42:01.476Z,101179.03
2022-12-11T01:42:33.651Z,101180.94
2022-12-11T01:43:05.139Z,101179.84
2022-12-11T01:44:00.159Z,101171.28
2022-12-11T01:44:31.461Z,101177.94
2022-12-11T01:45:21.581Z,101175.28
2022-12-11T01:45:53.003Z,101174.78
2022-12-11T01:46:25.192Z,101181.72
2022-12-11T01:46:56.635Z,101178.75
2022-12-11T01:47:28.096Z,101171.28
2022-12-11T01:48:05.476Z,101182.22
2022-12-11T01:48:42.064Z,101180.94
2022-12-11T01:49:17.155Z,101181.72
2022-12-11T01:49:48.608Z,101179.03
2022-12-11T01:50:20.369Z,101180.13
2022-12-11T01:51:04.793Z,101186.59
2022-12-11T01:51:41.739Z,101179.03
2022-12-11T01:52:21.272Z,101182.81
2022-12-11T01:52:53.309Z,101180.94
2022-12-11T01:53:32.076Z,101180.94
2022-12-11T01:54:09.051Z,101182.81
2022-12-11T01:54:42.010Z,101181.22
2022-12-11T01:55:14.483Z,101184.41
2022-12-11T01:55:47.748Z,101182.81
2022-12-11T01:56:19.660Z,101179.03
2022-12-11T01:56:55.087Z,101184.13
2022-12-11T01:57:26.557Z,101178.84
2022-12-11T01:57:58.288Z,101176.66
2022-12-11T01:58:34.448Z,101182.03
2022-12-11T01:59:08.071Z,101175.88
2022-12-11T01:59:43.330Z,101178.84
2022-12-11T02:00:15.359Z,101184.41
2022-12-11T02:00:46.969Z,101178.56
2022-12-11T02:01:29.349Z,101171.59
2022-12-11T02:02:08.495Z,101176.66
2022-12-11T02:02:40.165Z,101177.47
2022-12-11T02:03:11.672Z,101174.78
2022-12-11T02:03:43.026Z,101172.09
2022-12-11T02:04:15.830Z,101159.75
2022-12-11T02:04:48.400Z,101178.25
2022-12-11T02:05:19.919Z,101168.63
2022-12-11T02:05:51.340Z,101162.75
2022-12-11T02:06:40.542Z,101165.63
2022-12-11T02:07:12.080Z,101170.19
2022-12-11T02:07:50.549Z,101169.41
2022-12-11T02:08:22.064Z,101161.66
2022-12-11T02:08:53.527Z,101168.91
2022-12-11T02:09:33.378Z,101172.09
2022-12-11T02:10:05.562Z,101166.22
2022-12-11T02:10:48.549Z,101169.41
2022-12-11T02:11:25.787Z,101164.66
2022-12-11T02:12:29.002Z,101170.19
2022-12-11T02:13:17.610Z,101158.97
2022-12-11T02:14:04.150Z,101169.91
2022-12-11T02:14:44.167Z,101163.75
2022-12-11T02:15:25.691Z,101159.97
2022-12-11T02:16:10.153Z,101160.75
2022-12-11T02:16:53.471Z,101160.25
2022-12-11T02:17:40.780Z,101155.50
2022-12-11T02:18:29.352Z,101162.16
2022-12-11T02:19:08.083Z,101158.66
2022-12-11T02:19:45.568Z,101160.25
2022-12-11T02:20:43.772Z,101159.75
2022-12-11T02:21:23.323Z,101163.75
2022-12-11T02:21:57.196Z,101157.28
2022-12-11T02:22:53.891Z,101159.16
2022-12-11T02:23:38.876Z,101160.75
2022-12-11T02:24:48.994Z,101151.63
2022-12-11T02:25:35.440Z,101157.78
2022-12-11T02:26:34.095Z,101155.09
2022-12-11T02:27:20.647Z,101146.75
2022-12-11T02:27:58.841Z,101148.63
2022-12-11T02:28:33.010Z,101150.81
2022-12-11T02:29:12.116Z,101149.41
2022-12-11T02:29:53.919Z,101140.09
2022-12-11T02:30:25.473Z,101137.69
2022-12-11T02:31:05.684Z,101140.09
2022-12-11T02:31:43.534Z,101145.66
2022-12-11T02:32:21.702Z,101143.25
2022-12-11T02:32:56.925Z,101142.47
2022-12-11T02:33:43.838Z,101146.75
2022-12-11T02:34:23.125Z,101140.88
2022-12-11T02:35:09.606Z,101142.47
2022-12-11T02:35:44.076Z,101142.28
2022-12-11T02:36:18.106Z,101147.84
2022-12-11T02:36:54.286Z,101143.06
2022-12-11T02:37:29.381Z,101140.97
2022-12-11T02:38:08.150Z,101141.66
2022-12-11T02:38:43.404Z,101141.47
2022-12-11T02:39:16.729Z,101137.09
2022-12-11T02:39:50.677Z,101145.94
2022-12-11T02:40:26.405Z,101134.13
2022-12-11T02:41:00.580Z,101142.97
2022-12-11T02:41:33.704Z,101141.88
2022-12-11T02:42:08.004Z,101134.22
2022-12-11T02:42:42.461Z,101130.16
2022-12-11T02:43:16.313Z,101129.34
2022-12-11T02:43:50.633Z,101136.50
2022-12-11T02:44:29.488Z,101131.44
2022-12-11T02:45:03.291Z,101133.81
2022-12-11T02:45:36.160Z,101143.44
2022-12-11T02:46:08.135Z,101135.69
2022-12-11T02:46:41.088Z,101138.88
2022-12-11T02:47:15.181Z,101127.94
2022-12-11T02:47:47.839Z,101140.78
2022-12-11T02:48:21.121Z,101138.09
2022-12-11T02:48:54.242Z,101137.28
2022-12-11T02:49:27.746Z,101125.28
2022-12-11T02:50:02.685Z,101131.94
2022-12-11T02:50:38.429Z,101137.00
2022-12-11T02:51:12.464Z,101126.06
2022-12-11T02:51:44.325Z,101135.41
2022-12-11T02:52:21.111Z,101132.13
2022-12-11T02:52:55.946Z,101134.00
2022-12-11T02:53:31.090Z,101128.63
2022-12-11T02:54:04.738Z,101139.06
2022-12-11T02:54:39.630Z,101138.28
2022-12-11T02:55:14.109Z,101144.44
2022-12-11T02:55:45.797Z,101138.28
2022-12-11T02:56:24.637Z,101137.00
2022-12-11T02:57:08.529Z,101139.38
2022-12-11T02:57:45.524Z,101143.34
2022-12-11T02:58:24.257Z,101138.28
2022-12-11T02:59:00.354Z,101139.06
2022-12-11T02:59:39.303Z,101138.78
2022-12-11T03:00:11.755Z,101136.88
2022-12-11T03:00:45.091Z,101145.41
2022-12-11T03:01:16.894Z,101139.88
2022-12-11T03:01:48.458Z,101139.56
2022-12-11T03:02:20.285Z,101135.78
2022-12-11T03:02:51.820Z,101138.47
2022-12-11T03:03:23.607Z,101142.72
2022-12-11T03:03:56.224Z,101140.81
2022-12-11T03:04:29.395Z,101140.03
2022-12-11T03:05:00.787Z,101137.53
2022-12-11T03:05:32.727Z,101141.31
2022-12-11T03:06:04.313Z,101138.34
2022-12-11T03:06:41.623Z,101140.81
2022-12-11T03:07:23.298Z,101143.22
2022-12-11T03:07:54.931Z,101145.88
2022-12-11T03:08:26.476Z,101143.69
2022-12-11T03:08:57.903Z,101142.41
2022-12-11T03:09:29.425Z,101141.00
2022-12-11T03:10:01.100Z,101142.59
2022-12-11T03:10:33.037Z,101143.41
2022-12-11T03:11:04.754Z,101134.84
2022-12-11T03:11:36.188Z,101137.22
2022-12-11T03:12:15.161Z,101143.09
2022-12-11T03:12:53.675Z,101139.31
2022-12-11T03:13:25.583Z,101133.75
2022-12-11T03:13:57.400Z,101131.88
2022-12-11T03:14:28.867Z,101138.81
2022-12-11T03:15:03.272Z,101139.91
2022-12-11T03:15:57.529Z,101142.78
2022-12-11T03:16:35.672Z,101142.00
2022-12-11T03:17:07.025Z,101139.31
2022-12-11T03:18:01.226Z,101145.78
2022-12-11T03:18:52.415Z,101145.78
2022-12-11T03:19:52.223Z,101138.81
2022-12-11T03:20:37.496Z,101146.09
2022-12-11T03:21:28.187Z,101145.88
2022-12-11T03:22:12.700Z,101152.25
2022-12-11T03:22:50.060Z,101146.38
2022-12-11T03:23:46.065Z,101147.97
2022-12-11T03:24:26.316Z,101154.44
2022-12-11T03:25:04.860Z,101143.69
2022-12-11T03:25:44.472Z,101145.28
2022-12-11T03:26:19.464Z,101152.53
2022-12-11T03:27:00.172Z,101148.28
2022-12-11T03:27:42.343Z,101151.44
2022-12-11T03:28:19.375Z,101148.56
2022-12-11T03:29:09.357Z,101155.22
2022-12-11T03:29:51.370Z,101150.47
2022-12-11T03:30:25.039Z,101145.88
2022-12-11T03:30:57.940Z,101145.88
2022-12-11T03:31:40.862Z,101150.66
2022-12-11T03:32:19.751Z,101147.47
2022-12-11T03:33:00.498Z,101151.75
2022-12-11T03:33:37.385Z,101142.91
2022-12-11T03:34:16.924Z,101143.50
2022-12-11T03:34:58.412Z,101145.88
2022-12-11T03:35:35.377Z,101138.13
2022-12-11T03:36:11.583Z,101148.28
2022-12-11T03:36:44.380Z,101141.91
2022-12-11T03:37:16.636Z,101143.22
2022-12-11T03:37:49.695Z,101141.00
2022-12-11T03:38:27.978Z,101142.91
2022-12-11T03:39:09.187Z,101142.59
2022-12-11T03:39:47.181Z,101140.53
2022-12-11T03:40:22.864Z,101144.19
2022-12-11T03:40:59.205Z,101148.47
2022-12-11T03:41:34.205Z,101145.28
2022-12-11T03:42:08.429Z,101140.41
2022-12-11T03:42:42.665Z,101143.69
2022-12-11T03:43:16.151Z,101151.16
2022-12-11T03:43:51.897Z,101140.72
2022-12-11T03:44:24.851Z,101148.47
2022-12-11T03:44:58.916Z,101139.63
2022-12-11T03:45:30.530Z,101150.06
2022-12-11T03:46:02.697Z,101147.38
2022-12-11T03:46:40.035Z,101147.38
2022-12-11T03:47:14.703Z,101145.47
2022-12-11T03:47:47.571Z,101143.41
2022-12-11T03:48:20.867Z,101142.59
2022-12-11T03:48:55.584Z,101140.41
2022-12-11T03:49:31.923Z,101132.97
2022-12-11T03:50:07.399Z,101136.63
2022-12-11T03:50:41.638Z,101140.91
2022-12-11T03:51:14.830Z,101137.22
2022-12-11T03:51:48.619Z,101141.22
2022-12-11T03:52:20.934Z,101144.69
2022-12-11T03:52:53.766Z,101141.22
2022-12-11T03:53:26.542Z,101138.53
2022-12-11T03:53:59.761Z,101137.22
2022-12-11T03:54:31.664Z,101141.50
2022-12-11T03:55:05.038Z,101134.25
2022-12-11T03:55:38.202Z,101133.44
2022-12-11T03:56:11.922Z,101138.22
2022-12-11T03:56:45.988Z,101135.03
2022-12-11T03:57:22.566Z,101137.13
2022-12-11T03:57:54.090Z,101128.09
2022-12-11T03:58:25.642Z,101136.13
2022-12-11T03:58:57.355Z,101128.09
2022-12-11T03:59:28.809Z,101125.09
2022-12-11T04:00:00.583Z,101130.16
2022-12-11T04:00:32.380Z,101125.09
2022-12-11T04:01:04.145Z,101124.00
2022-12-11T04:01:35.784Z,101132.56
2022-12-11T04:02:11.100Z,101127.19
2022-12-11T04:02:43.502Z,101128.47
2022-12-11T04:03:15.829Z,101125.91
2022-12-11T04:03:47.288Z,101124.50
2022-12-11T04:04:19.067Z,101126.88
2022-12-11T04:04:51.400Z,101127.97
2022-12-11T04:05:22.756Z,101133.03
2022-12-11T04:05:55.747Z,101127.97
2022-12-11T04:06:27.120Z,101125.28
2022-12-11T04:06:58.760Z,101131.44
2022-12-11T04:07:31.203Z,101128.28
2022-12-11T04:08:02.885Z,101132.25
2022-12-11T04:08:34.362Z,101122.72
2022-12-11T04:09:05.753Z,101130.97
2022-12-11T04:09:37.270Z,101129.06
2022-12-11T04:10:08.762Z,101133.44
2022-12-11T04:10:41.250Z,101123.81
2022-12-11T04:11:31.195Z,101136.13
2022-12-11T04:12:02.760Z,101129.38
2022-12-11T04:12:34.120Z,101125.91
2022-12-11T04:13:05.714Z,101133.66
2022-12-11T04:13:38.032Z,101130.97
2022-12-11T04:14:31.887Z,101137.72
2022-12-11T04:15:03.449Z,101129.06
2022-12-11T04:15:34.992Z,101131.25
2022-12-11T04:16:07.083Z,101124.31
2022-12-11T04:16:38.614Z,101129.88
2022-12-11T04:17:10.164Z,101128.88
2022-12-11T04:18:00.175Z,101124.31
2022-12-11T04:18:50.094Z,101132.06
2022-12-11T04:19:42.392Z,101127.47
2022-12-11T04:20:32.707Z,101135.53
2022-12-11T04:21:22.595Z,101125.91
2022-12-11T04:22:12.859Z,101133.66
2022-12-11T04:23:02.914Z,101131.25
2022-12-11T04:23:53.220Z,101130.47
2022-12-11T04:24:24.783Z,101132.06
2022-12-11T04:24:56.200Z,101125.91
2022-12-11T04:25:27.632Z,101129.69
2022-12-11T04:26:16.457Z,101129.38
2022-12-11T04:26:47.852Z,101132.06
2022-12-11T04:27:39.559Z,101135.53
2022-12-11T04:28:11.037Z,101127.19
2022-12-11T04:28:43.595Z,101133.66
2022-12-11T04:29:15.197Z,101113.06
2022-12-11T04:29:46.678Z,101115.75
2022-12-11T04:30:21.200Z,101125.59
2022-12-11T04:30:52.749Z,101122.13
2022-12-11T04:31:24.274Z,101126.69
2022-12-11T04:31:55.730Z,101120.22
2022-12-11T04:32:27.127Z,101118.63
2022-12-11T04:32:58.524Z,101120.53
2022-12-11T04:33:30.044Z,101119.13
2022-12-11T04:34:01.532Z,101117.84
2022-12-11T04:34:32.875Z,101112.97
2022-12-11T04:35:06.548Z,101111.88
2022-12-11T04:35:38.094Z,101117.53
2022-12-11T04:36:11.484Z,101119.44
2022-12-11T04:36:43.551Z,101118.63
2022-12-11T04:37:15.145Z,101109.78
2022-12-11T04:37:46.654Z,101106.59
2022-12-11T04:38:18.048Z,101115.16
2022-12-11T04:38:49.471Z,101113.06
2022-12-11T04:39:20.867Z,101106.13
2022-12-11T04:39:52.256Z,101118.94
2022-12-11T04:40:23.712Z,101113.06
2022-12-11T04:41:04.356Z,101113.88
2022-12-11T04:41:37.151Z,101120.81
2022-12-11T04:42:08.601Z,101115.47
2022-12-11T04:42:40.085Z,101117.34
2022-12-11T04:43:11.492Z,101118.94
2022-12-11T04:43:45.227Z,101111.97
2022-12-11T04:44:16.866Z,101117.84
2022-12-11T04:44:48.467Z,101111.19
2022-12-11T04:45:19.892Z,101113.56
2022-12-11T04:45:51.334Z,101114.66
2022-12-11T04:46:24.510Z,101113.88
2022-12-11T04:46:55.958Z,101109.78
2022-12-11T04:47:27.584Z,101109.00
2022-12-11T04:47:59.541Z,101115.16
2022-12-11T04:48:31.028Z,101110.56
2022-12-11T04:49:02.651Z,101110.38
2022-12-11T04:49:33.993Z,101106.91
2022-12-11T04:50:08.016Z,101102.63
2022-12-11T04:50:39.347Z,101108.50
2022-12-11T04:51:11.522Z,101111.97
2022-12-11T04:51:43.682Z,101106.59
2022-12-11T04:52:15.122Z,101100.75
2022-12-11T04:52:46.520Z,101102.03
2022-12-11T04:53:17.930Z,101098.84
2022-12-11T04:53:49.343Z,101104.22
2022-12-11T04:54:20.683Z,101108.00
2022-12-11T04:54:52.133Z,101105.03
2022-12-11T04:55:23.960Z,101106.13
2022-12-11T04:55:55.723Z,101108.19
2022-12-11T04:56:27.376Z,101094.09
2022-12-11T04:56:58.820Z,101095.06
2022-12-11T04:57:30.198Z,101102.63
2022-12-11T04:58:01.583Z,101096.19
2022-12-11T04:58:33.192Z,101101.25
2022-12-11T04:59:04.540Z,101108.69
2022-12-11T04:59:37.108Z,101115.66
2022-12-11T05:00:11.219Z,101108.69
2022-12-11T05:00:42.780Z,101105.50
2022-12-11T05:01:17.622Z,101096.66
2022-12-11T05:01:49.139Z,101105.81
2022-12-11T05:02:20.610Z,101109.00
2022-12-11T05:02:52.103Z,101109.00
2022-12-11T05:03:23.648Z,101112.97
2022-12-11T05:03:55.010Z,101107.91
2022-12-11T05:04:31.879Z,101114.56
2022-12-11T05:05:09.901Z,101107.09
2022-12-11T05:05:47.912Z,101104.59
2022-12-11T05:06:19.312Z,101108.38
2022-12-11T05:06:51.076Z,101106.78
2022-12-11T05:07:22.503Z,101117.72
2022-12-11T05:07:54.130Z,101115.34
2022-12-11T05:08:25.664Z,101117.72
2022-12-11T05:08:58.798Z,101113.94
2022-12-11T05:09:30.423Z,101105.69
2022-12-11T05:10:02.075Z,101115.53
2022-12-11T05:10:33.485Z,101116.13
2022-12-11T05:11:07.714Z,101119.31
2022-12-11T05:11:39.575Z,101116.63
2022-12-11T05:12:11.126Z,101117.72
2022-12-11T05:12:42.568Z,101122.00
2022-12-11T05:13:13.875Z,101112.66
2022-12-11T05:13:45.848Z,101122.00
2022-12-11T05:14:17.375Z,101120.41
2022-12-11T05:14:53.110Z,101118.53
2022-12-11T05:15:24.498Z,101121.22
2022-12-11T05:15:56.475Z,101121.22
2022-12-11T05:16:27.914Z,101126.56
2022-12-11T05:16:59.776Z,101124.69
2022-12-11T05:17:31.160Z,101119.91
2022-12-11T05:18:02.586Z,101121.50
2022-12-11T05:18:34.603Z,101122.00
2022-12-11T05:19:06.252Z,101116.44
2022-12-11T05:19:37.771Z,101119.63
2022-12-11T05:20:10.510Z,101122.50
2022-12-11T05:20:42.035Z,101120.41
2022-12-11T05:21:15.273Z,101124.38
2022-12-11T05:21:46.743Z,101118.53
2022-12-11T05:22:18.943Z,101117.44
2022-12-11T05:22:50.355Z,101111.56
2022-12-11T05:23:21.713Z,101116.63
2022-12-11T05:23:53.144Z,101116.13
2022-12-11T05:24:24.525Z,101112.34
2022-12-11T05:24:56.000Z,101113.94
2022-12-11T05:25:27.468Z,101117.72
2022-12-11T05:26:01.878Z,101117.72
2022-12-11T05:26:33.303Z,101109.47
2022-12-11T05:27:04.684Z,101123.09
2022-12-11T05:27:36.110Z,101110.78
2022-12-11T05:28:07.522Z,101115.03
2022-12-11T05:28:40.041Z,101111.88
2022-12-11T05:29:11.434Z,101111.88
2022-12-11T05:29:43.023Z,101116.13
2022-12-11T05:30:14.465Z,101115.03
2022-12-11T05:30:45.813Z,101113.44
2022-12-11T05:31:19.960Z,101115.84
2022-12-11T05:31:51.388Z,101104.59
2022-12-11T05:32:23.013Z,101104.91
2022-12-11T05:32:54.358Z,101113.16
2022-12-11T05:33:26.674Z,101113.94
2022-12-11T05:33:58.150Z,101112.34
2022-12-11T05:34:29.602Z,101109.19
2022-12-11T05:35:01.150Z,101102.22
2022-12-11T05:35:32.487Z,101108.09
2022-12-11T05:36:04.762Z,101110.78
2022-12-11T05:36:36.283Z,101107.59
2022-12-11T05:37:07.988Z,101101.13
2022-12-11T05:37:39.336Z,101104.59
2022-12-11T05:38:10.809Z,101103.81
2022-12-11T05:38:42.270Z,101110.28
2022-12-11T05:39:13.698Z,101101.13
2022-12-11T05:39:45.071Z,101103.81
2022-12-11T05:40:16.673Z,101105.69
2022-12-11T05:41:02.212Z,101103.31
2022-12-11T05:41:33.883Z,101104.41
2022-12-11T05:42:05.402Z,101095.56
2022-12-11T05:42:36.808Z,101103.63
2022-12-11T05:43:08.692Z,101106.78
2022-12-11T05:43:40.219Z,101099.03
2022-12-11T05:44:13.314Z,101097.16
2022-12-11T05:44:44.921Z,101097.16
2022-12-11T05:45:16.435Z,101100.63
2022-12-11T05:45:47.781Z,101100.63
2022-12-11T05:46:21.830Z,101103.81
2022-12-11T05:46:53.301Z,101099.84
2022-12-11T05:47:25.495Z,101099.53
2022-12-11T05:47:56.966Z,101104.59
2022-12-11T05:48:28.377Z,101100.63
2022-12-11T05:49:01.942Z,101099.53
2022-12-11T05:49:33.313Z,101095.56
2022-12-11T05:50:04.954Z,101102.22
2022-12-11T05:50:36.413Z,101101.44
2022-12-11T05:51:09.087Z,101101.44
2022-12-11T05:51:41.450Z,101105.22
2022-12-11T05:52:12.898Z,101098.06
2022-12-11T05:52:44.322Z,101101.25
2022-12-11T05:53:15.745Z,101102.81
2022-12-11T05:53:49.212Z,101098.84
2022-12-11T05:54:20.815Z,101107.91
2022-12-11T05:54:52.208Z,101103.63
2022-12-11T05:55:23.677Z,101104.13
2022-12-11T05:55:55.274Z,101107.59
2022-12-11T05:56:29.811Z,101093.19
2022-12-11T05:57:01.244Z,101106.00
2022-12-11T05:57:32.642Z,101102.53
2022-12-11T05:58:04.001Z,101104.41
2022-12-11T05:58:35.953Z,101100.44
2022-12-11T05:59:07.853Z,101101.25
2022-12-11T05:59:39.289Z,101103.63
2022-12-11T06:00:12.626Z,101096.97
2022-12-11T06:00:44.315Z,101109.78
2022-12-11T06:01:22.531Z,101104.41
2022-12-11T06:01:54.051Z,101098.06
2022-12-11T06:02:25.776Z,101099.16
2022-12-11T06:02:57.302Z,101099.16
2022-12-11T06:03:28.942Z,101105.31
2022-12-11T06:04:01.034Z,101095.69
2022-12-11T06:04:33.295Z,101100.25
2022-12-11T06:05:05.029Z,101097.28
2022-12-11T06:05:40.546Z,101098.06
2022-12-11T06:06:12.075Z,101097.56
2022-12-11T06:06:46.678Z,101099.66
2022-12-11T06:07:18.245Z,101101.53
2022-12-11T06:07:49.668Z,101092.69
2022-12-11T06:08:21.266Z,101096.47
2022-12-11T06:08:54.849Z,101100.16
2022-12-11T06:09:26.240Z,101096.66
2022-12-11T06:09:57.622Z,101084.94
2022-12-11T06:10:29.243Z,101095.88
2022-12-11T06:11:01.123Z,101093.19
2022-12-11T06:11:34.089Z,101085.75
2022-12-11T06:12:05.589Z,101090.81
2022-12-11T06:12:37.069Z,101086.34
2022-12-11T06:13:08.578Z,101084.16
2022-12-11T06:13:40.033Z,101090.00
2022-12-11T06:14:12.133Z,101090.50
2022-12-11T06:14:43.675Z,101086.03
2022-12-11T06:15:15.152Z,101080.97
2022-12-11T06:15:46.613Z,101089.72
2022-12-11T06:16:18.101Z,101087.31
2022-12-11T06:16:50.295Z,101091.28
2022-12-11T06:17:21.774Z,101089.72
2022-12-11T06:17:53.303Z,101087.81
2022-12-11T06:18:24.749Z,101089.41
2022-12-11T06:18:58.408Z,101090.19
2022-12-11T06:19:36.400Z,101094.47
2022-12-11T06:20:08.658Z,101091.78
2022-12-11T06:20:40.189Z,101091.00
2022-12-11T06:21:24.759Z,101099.03
2022-12-11T06:21:56.229Z,101094.78
2022-12-11T06:22:27.707Z,101097.47
2022-12-11T06:22:59.763Z,101093.19
2022-12-11T06:23:31.215Z,101090.50
2022-12-11T06:24:04.108Z,101091.78
2022-12-11T06:24:35.571Z,101092.09
2022-12-11T06:25:07.512Z,101092.88
2022-12-11T06:25:39.843Z,101095.88
2022-12-11T06:26:11.774Z,101096.38
2022-12-11T06:26:43.208Z,101090.50
2022-12-11T06:27:14.742Z,101098.25
2022-12-11T06:27:46.187Z,101091.28
2022-12-11T06:28:17.578Z,101098.56
2022-12-11T06:28:49.710Z,101093.50
2022-12-11T06:29:21.036Z,101095.88
2022-12-11T06:29:52.562Z,101093.50
2022-12-11T06:30:37.649Z,101096.97